createdAt,value
2018-12-17T00:07:03.901Z,74.20
2018-12-17T00:11:07.671Z,70.52
2018-12-17T00:26:04.961Z,78.37
2018-12-17T00:30:26.646Z,81.00
2018-12-17T00:44:00.737Z,81.22
2018-12-17T00:48:04.388Z,78.27
2018-12-17T01:52:31.356Z,75.65
2018-12-17T02:57:13.961Z,65.95
2018-12-17T03:19:07.061Z,67.25
2018-12-17T03:26:00.318Z,62.55
2018-12-17T03:35:28.543Z,63.30
2018-12-17T04:07:51.062Z,68.22
2018-12-17T04:43:36.267Z,73.57
2018-12-17T05:00:32.305Z,68.07
2018-12-17T05:04:35.934Z,64.40
2018-12-17T05:08:39.581Z,60.27
2018-12-17T05:12:43.219Z,59.98
2018-12-17T05:16:46.910Z,63.83
2018-12-17T05:21:53.077Z,55.78
2018-12-17T05:25:56.712Z,53.10
2018-12-17T05:30:00.347Z,57.33
2018-12-17T05:35:09.138Z,52.08
2018-12-17T05:39:12.798Z,55.60
2018-12-17T05:43:16.484Z,54.33
2018-12-17T05:47:20.230Z,55.30
2018-12-17T07:02:21.641Z,43.80
2018-12-17T07:10:06.902Z,48.58
2018-12-17T08:01:26.883Z,31.57
2018-12-17T09:53:11.533Z,24.50
2018-12-17T10:14:10.542Z,21.33
2018-12-17T10:41:09.874Z,20.97
2018-12-17T10:48:43.376Z,19.60
2018-12-17T11:02:55.130Z,17.60
2018-12-17T11:23:34.193Z,13.17
2018-12-17T11:27:37.817Z,11.40
2018-12-17T11:31:41.438Z,14.63
2018-12-17T11:35:45.028Z,12.17
2018-12-17T11:39:48.736Z,9.33
2018-12-17T11:46:17.726Z,15.45
2018-12-17T11:50:21.334Z,11.33
2018-12-17T11:54:24.950Z,11.50
2018-12-17T11:58:28.594Z,12.33
2018-12-17T12:02:32.555Z,10.05
2018-12-17T12:06:36.323Z,12.55
2018-12-17T12:10:39.999Z,9.88
2018-12-17T12:14:43.678Z,11.10
2018-12-17T12:18:47.305Z,8.18
2018-12-17T12:22:50.928Z,9.03
2018-12-17T12:26:54.802Z,9.13
2018-12-17T12:31:00.601Z,10.57
2018-12-17T12:35:04.958Z,11.00
2018-12-17T12:39:08.726Z,10.30
2018-12-17T12:43:12.372Z,10.50
2018-12-17T12:47:16.141Z,10.00
2018-12-17T12:51:19.861Z,10.65
2018-12-17T12:55:23.497Z,9.80
2018-12-17T12:59:27.137Z,10.40
2018-12-17T13:03:30.761Z,9.63
2018-12-17T13:07:34.426Z,10.72
2018-12-17T13:11:38.026Z,10.60
2018-12-17T13:15:41.714Z,10.47
2018-12-17T13:19:45.330Z,10.32
2018-12-17T13:23:48.983Z,11.28
2018-12-17T13:27:52.622Z,9.10
2018-12-17T13:31:56.217Z,11.85
2018-12-17T13:35:59.830Z,12.07
2018-12-17T13:40:04.094Z,10.20
2018-12-17T13:44:07.726Z,12.03
2018-12-17T13:48:11.738Z,10.30
2018-12-17T13:52:20.802Z,11.05
2018-12-17T13:56:24.397Z,10.50
2018-12-17T14:00:28.048Z,10.48
2018-12-17T14:04:31.694Z,12.47
2018-12-17T14:08:35.321Z,9.48
2018-12-17T14:12:38.929Z,10.58
2018-12-17T14:16:47.887Z,9.87
2018-12-17T14:25:07.763Z,56.75
2018-12-17T14:29:11.393Z,11.28
2018-12-17T14:33:15.033Z,7.20
2018-12-17T14:37:18.782Z,10.00
2018-12-17T14:41:22.413Z,8.57
2018-12-17T14:45:26.295Z,8.60
2018-12-17T14:49:30.028Z,8.45
2018-12-17T14:53:33.674Z,8.35
2018-12-17T14:57:37.299Z,7.93
2018-12-17T15:01:40.946Z,9.00
2018-12-17T15:05:44.583Z,10.28
2018-12-17T15:09:48.221Z,6.90
2018-12-17T15:13:52.086Z,9.80
2018-12-17T15:17:55.737Z,10.70
2018-12-17T15:21:59.381Z,9.60
2018-12-17T15:26:03.042Z,9.00
2018-12-17T15:30:07.004Z,11.57
2018-12-17T15:34:10.634Z,11.83
2018-12-17T15:38:14.225Z,11.80
2018-12-17T15:47:09.450Z,19.48
2018-12-17T16:39:26.584Z,23.40
2018-12-17T16:43:30.188Z,35.52
2018-12-17T16:47:33.914Z,41.02
2018-12-17T16:55:46.167Z,20.55
2018-12-17T16:59:49.798Z,20.40
2018-12-17T17:03:53.515Z,22.58
2018-12-17T17:07:57.148Z,20.62
2018-12-17T17:12:00.786Z,23.60
2018-12-17T17:16:04.457Z,24.85
2018-12-17T17:20:09.627Z,25.23
2018-12-17T17:24:13.408Z,24.32
2018-12-17T17:28:17.025Z,23.98
2018-12-17T17:32:20.656Z,24.27
2018-12-17T17:36:24.281Z,25.75
2018-12-17T17:40:27.979Z,26.57
2018-12-17T17:44:31.577Z,28.90
2018-12-17T17:48:35.213Z,29.20
2018-12-17T17:52:38.862Z,27.67
2018-12-17T17:56:42.477Z,30.17
2018-12-17T18:00:46.121Z,29.12
2018-12-17T18:04:49.754Z,29.37
2018-12-17T18:08:53.394Z,29.53
2018-12-17T18:12:57.046Z,31.42
2018-12-17T18:17:00.859Z,31.05
2018-12-17T18:21:04.530Z,30.88
2018-12-17T18:25:08.262Z,42.73
2018-12-17T18:29:11.921Z,33.30
2018-12-17T18:33:15.616Z,98.95
2018-12-17T18:37:19.306Z,31.37
2018-12-17T18:41:22.981Z,36.05
2018-12-17T18:45:26.590Z,31.90
2018-12-17T18:49:30.222Z,32.40
2018-12-17T18:53:33.854Z,30.37
2018-12-17T18:57:37.524Z,31.48
2018-12-17T19:01:41.126Z,33.40
2018-12-17T19:05:44.785Z,30.77
2018-12-17T19:09:48.421Z,30.70
2018-12-17T19:13:52.089Z,30.55
2018-12-17T19:17:55.719Z,31.95
2018-12-17T19:21:59.325Z,31.47
2018-12-17T19:26:03.153Z,30.30
2018-12-17T19:30:07.782Z,30.68
2018-12-17T19:34:11.594Z,28.63
2018-12-17T19:38:15.218Z,30.30
2018-12-17T19:42:18.833Z,29.40
2018-12-17T19:46:22.721Z,30.53
2018-12-17T19:50:26.424Z,31.20
2018-12-17T19:54:30.198Z,30.95
2018-12-17T19:58:33.900Z,34.73
2018-12-17T20:02:37.554Z,30.65
2018-12-17T20:06:41.198Z,31.62
2018-12-17T20:10:44.835Z,31.93
2018-12-17T20:14:48.550Z,31.40
2018-12-17T20:18:52.209Z,32.40
2018-12-17T20:22:55.841Z,34.00
2018-12-17T20:26:59.448Z,32.83
2018-12-17T20:31:03.093Z,32.40
2018-12-17T20:35:07.569Z,32.23
2018-12-17T20:39:11.209Z,35.03
2018-12-17T20:43:14.979Z,36.15
2018-12-17T20:47:18.585Z,33.63
2018-12-17T20:51:22.373Z,35.73
2018-12-17T20:55:30.461Z,35.30
2018-12-17T20:59:31.710Z,33.92
2018-12-17T21:03:35.388Z,34.50
2018-12-17T21:07:39.007Z,34.98
2018-12-17T21:11:42.723Z,37.30
2018-12-17T21:15:46.465Z,34.67
2018-12-17T21:19:50.093Z,48.38
2018-12-17T21:23:53.806Z,49.33
2018-12-17T21:27:57.406Z,47.10
2018-12-17T21:32:01.046Z,37.13
2018-12-17T21:36:04.818Z,36.50
2018-12-17T21:40:09.145Z,39.58
2018-12-17T21:44:12.780Z,43.23
2018-12-17T21:48:16.374Z,43.45
2018-12-17T21:52:20.137Z,41.10
2018-12-17T21:56:23.769Z,42.47
2018-12-17T22:00:27.399Z,42.15
2018-12-17T22:04:31.033Z,42.70
2018-12-17T22:08:34.637Z,41.43
2018-12-17T22:12:38.317Z,42.80
2018-12-17T22:16:41.985Z,44.00
2018-12-17T22:20:45.657Z,42.80
2018-12-17T22:24:49.283Z,39.42
2018-12-17T22:28:52.889Z,44.08
2018-12-17T22:32:56.527Z,43.65
2018-12-17T22:37:00.228Z,37.90
2018-12-17T22:41:03.870Z,41.63
2018-12-17T22:45:07.763Z,41.85
2018-12-17T22:49:11.393Z,43.92
2018-12-17T22:53:15.014Z,58.90
2018-12-17T22:57:18.693Z,49.40
2018-12-17T23:01:22.460Z,46.05
2018-12-17T23:05:26.094Z,44.90
2018-12-17T23:09:43.038Z,43.70
2018-12-17T23:13:57.922Z,44.53
2018-12-17T23:18:00.620Z,44.77
2018-12-17T23:22:04.402Z,45.00
2018-12-17T23:26:08.090Z,50.05
2018-12-17T23:30:11.729Z,44.73
2018-12-17T23:34:15.353Z,45.95
2018-12-17T23:38:18.995Z,45.03
2018-12-17T23:42:22.694Z,52.78
2018-12-17T23:46:26.349Z,44.93
2018-12-17T23:50:29.986Z,47.67
2018-12-17T23:54:33.604Z,49.45
2018-12-17T23:58:37.250Z,50.12
